sensor_id;sensor_type;location;lat;lon;timestamp;P1;durP1;ratioP1;P2;durP2;ratioP2
49223;SDS011;35050;51.316;5.994;2023-02-15T00:01:39;11.88;;;6.82;;
49223;SDS011;35050;51.316;5.994;2023-02-15T00:04:05;10.27;;;6.05;;
49223;SDS011;35050;51.316;5.994;2023-02-15T00:06:31;11.27;;;6.32;;
49223;SDS011;35050;51.316;5.994;2023-02-15T00:08:57;11.23;;;6.35;;
49223;SDS011;35050;51.316;5.994;2023-02-15T00:11:23;9.45;;;6.60;;
49223;SDS011;35050;51.316;5.994;2023-02-15T00:16:37;11.52;;;7.50;;
49223;SDS011;35050;51.316;5.994;2023-02-15T00:19:04;10.15;;;6.82;;
49223;SDS011;35050;51.316;5.994;2023-02-15T00:21:31;9.23;;;6.22;;
49223;SDS011;35050;51.316;5.994;2023-02-15T00:23:58;9.20;;;6.25;;
49223;SDS011;35050;51.316;5.994;2023-02-15T00:26:25;10.88;;;6.38;;
49223;SDS011;35050;51.316;5.994;2023-02-15T00:28:51;11.13;;;6.53;;
49223;SDS011;35050;51.316;5.994;2023-02-15T00:31:17;8.82;;;6.43;;
49223;SDS011;35050;51.316;5.994;2023-02-15T00:33:43;7.93;;;6.03;;
49223;SDS011;35050;51.316;5.994;2023-02-15T00:36:09;10.45;;;6.38;;
49223;SDS011;35050;51.316;5.994;2023-02-15T00:38:36;10.27;;;6.70;;
49223;SDS011;35050;51.316;5.994;2023-02-15T00:41:03;9.63;;;6.18;;
49223;SDS011;35050;51.316;5.994;2023-02-15T00:43:30;8.15;;;6.20;;
49223;SDS011;35050;51.316;5.994;2023-02-15T00:45:57;10.98;;;6.13;;
49223;SDS011;35050;51.316;5.994;2023-02-15T00:48:23;10.90;;;6.50;;
49223;SDS011;35050;51.316;5.994;2023-02-15T00:50:51;8.93;;;6.30;;
49223;SDS011;35050;51.316;5.994;2023-02-15T00:53:19;11.02;;;6.60;;
49223;SDS011;35050;51.316;5.994;2023-02-15T00:55:45;9.48;;;6.15;;
49223;SDS011;35050;51.316;5.994;2023-02-15T00:58:11;9.10;;;6.00;;
49223;SDS011;35050;51.316;5.994;2023-02-15T01:00:37;9.32;;;6.32;;
49223;SDS011;35050;51.316;5.994;2023-02-15T01:03:04;10.75;;;6.65;;
49223;SDS011;35050;51.316;5.994;2023-02-15T01:05:31;9.98;;;5.75;;
49223;SDS011;35050;51.316;5.994;2023-02-15T01:07:57;8.57;;;6.38;;
49223;SDS011;35050;51.316;5.994;2023-02-15T01:10:24;8.77;;;6.68;;
49223;SDS011;35050;51.316;5.994;2023-02-15T01:12:51;9.70;;;6.85;;
49223;SDS011;35050;51.316;5.994;2023-02-15T01:15:17;9.85;;;7.28;;
49223;SDS011;35050;51.316;5.994;2023-02-15T01:17:43;11.80;;;8.23;;
49223;SDS011;35050;51.316;5.994;2023-02-15T01:20:10;12.98;;;7.88;;
49223;SDS011;35050;51.316;5.994;2023-02-15T01:22:37;13.13;;;8.00;;
49223;SDS011;35050;51.316;5.994;2023-02-15T01:25:02;10.80;;;7.47;;
49223;SDS011;35050;51.316;5.994;2023-02-15T01:27:28;13.90;;;7.35;;
49223;SDS011;35050;51.316;5.994;2023-02-15T01:29:55;11.07;;;6.85;;
49223;SDS011;35050;51.316;5.994;2023-02-15T01:32:22;11.32;;;6.90;;
49223;SDS011;35050;51.316;5.994;2023-02-15T01:34:48;9.85;;;6.65;;
49223;SDS011;35050;51.316;5.994;2023-02-15T01:37:13;12.07;;;7.70;;
49223;SDS011;35050;51.316;5.994;2023-02-15T01:39:39;12.95;;;8.38;;
49223;SDS011;35050;51.316;5.994;2023-02-15T01:42:04;14.95;;;7.88;;
49223;SDS011;35050;51.316;5.994;2023-02-15T01:50:17;11.13;;;7.13;;
49223;SDS011;35050;51.316;5.994;2023-02-15T01:52:52;11.23;;;7.65;;
49223;SDS011;35050;51.316;5.994;2023-02-15T01:55:29;12.20;;;6.65;;
49223;SDS011;35050;51.316;5.994;2023-02-15T01:58:01;13.32;;;7.38;;
49223;SDS011;35050;51.316;5.994;2023-02-15T02:00:27;10.43;;;6.90;;
49223;SDS011;35050;51.316;5.994;2023-02-15T02:02:54;14.32;;;7.55;;
49223;SDS011;35050;51.316;5.994;2023-02-15T02:05:21;15.15;;;8.10;;
49223;SDS011;35050;51.316;5.994;2023-02-15T02:07:48;11.07;;;7.03;;
49223;SDS011;35050;51.316;5.994;2023-02-15T02:10:17;11.07;;;6.55;;
49223;SDS011;35050;51.316;5.994;2023-02-15T02:12:45;13.93;;;7.22;;
49223;SDS011;35050;51.316;5.994;2023-02-15T02:15:13;10.02;;;6.85;;
49223;SDS011;35050;51.316;5.994;2023-02-15T02:17:55;12.63;;;7.22;;
49223;SDS011;35050;51.316;5.994;2023-02-15T02:23:18;12.07;;;7.07;;
49223;SDS011;35050;51.316;5.994;2023-02-15T02:26:03;12.02;;;7.07;;
49223;SDS011;35050;51.316;5.994;2023-02-15T02:38:08;11.55;;;6.65;;
49223;SDS011;35050;51.316;5.994;2023-02-15T02:43:15;10.90;;;7.15;;
49223;SDS011;35050;51.316;5.994;2023-02-15T02:48:25;11.57;;;6.70;;
49223;SDS011;35050;51.316;5.994;2023-02-15T02:50:53;11.73;;;7.72;;
49223;SDS011;35050;51.316;5.994;2023-02-15T02:53:19;11.07;;;6.82;;
49223;SDS011;35050;51.316;5.994;2023-02-15T02:58:29;10.88;;;7.57;;
49223;SDS011;35050;51.316;5.994;2023-02-15T03:03:32;10.75;;;7.38;;
49223;SDS011;35050;51.316;5.994;2023-02-15T03:06:00;13.20;;;8.15;;
49223;SDS011;35050;51.316;5.994;2023-02-15T03:08:33;13.35;;;8.00;;
49223;SDS011;35050;51.316;5.994;2023-02-15T03:11:05;13.15;;;7.45;;
49223;SDS011;35050;51.316;5.994;2023-02-15T03:13:31;10.13;;;7.50;;
49223;SDS011;35050;51.316;5.994;2023-02-15T03:15:58;12.32;;;8.10;;
49223;SDS011;35050;51.316;5.994;2023-02-15T03:18:46;13.55;;;7.95;;
49223;SDS011;35050;51.316;5.994;2023-02-15T03:21:19;11.50;;;8.00;;
49223;SDS011;35050;51.316;5.994;2023-02-15T03:23:50;11.82;;;7.50;;
49223;SDS011;35050;51.316;5.994;2023-02-15T03:26:24;12.35;;;7.45;;
49223;SDS011;35050;51.316;5.994;2023-02-15T03:28:52;12.75;;;7.90;;
49223;SDS011;35050;51.316;5.994;2023-02-15T03:31:23;15.50;;;8.85;;
49223;SDS011;35050;51.316;5.994;2023-02-15T03:34:02;11.77;;;7.85;;
49223;SDS011;35050;51.316;5.994;2023-02-15T03:36:33;13.75;;;8.55;;
49223;SDS011;35050;51.316;5.994;2023-02-15T03:39:11;11.25;;;7.45;;
49223;SDS011;35050;51.316;5.994;2023-02-15T03:41:58;13.57;;;7.88;;
49223;SDS011;35050;51.316;5.994;2023-02-15T03:44:49;13.15;;;7.78;;
49223;SDS011;35050;51.316;5.994;2023-02-15T03:47:34;12.18;;;7.88;;
49223;SDS011;35050;51.316;5.994;2023-02-15T03:50:08;11.68;;;7.88;;
49223;SDS011;35050;51.316;5.994;2023-02-15T03:52:59;10.77;;;7.70;;
49223;SDS011;35050;51.316;5.994;2023-02-15T03:55:28;11.95;;;7.88;;
49223;SDS011;35050;51.316;5.994;2023-02-15T03:57:54;11.88;;;7.95;;
49223;SDS011;35050;51.316;5.994;2023-02-15T04:00:39;14.43;;;7.97;;
49223;SDS011;35050;51.316;5.994;2023-02-15T04:03:31;14.43;;;7.88;;
49223;SDS011;35050;51.316;5.994;2023-02-15T04:06:02;15.75;;;8.90;;
49223;SDS011;35050;51.316;5.994;2023-02-15T04:08:28;12.43;;;8.25;;
49223;SDS011;35050;51.316;5.994;2023-02-15T04:11:12;14.07;;;8.93;;
49223;SDS011;35050;51.316;5.994;2023-02-15T04:13:38;13.05;;;8.35;;
49223;SDS011;35050;51.316;5.994;2023-02-15T04:16:04;12.57;;;8.43;;
49223;SDS011;35050;51.316;5.994;2023-02-15T04:18:31;15.07;;;9.23;;
49223;SDS011;35050;51.316;5.994;2023-02-15T04:21:24;13.77;;;9.17;;
49223;SDS011;35050;51.316;5.994;2023-02-15T04:24:09;13.75;;;8.80;;
49223;SDS011;35050;51.316;5.994;2023-02-15T04:26:54;12.73;;;8.32;;
49223;SDS011;35050;51.316;5.994;2023-02-15T04:29:21;14.38;;;8.25;;
49223;SDS011;35050;51.316;5.994;2023-02-15T04:31:48;12.52;;;7.70;;
49223;SDS011;35050;51.316;5.994;2023-02-15T04:34:14;14.40;;;9.18;;
49223;SDS011;35050;51.316;5.994;2023-02-15T04:36:40;12.57;;;8.35;;
49223;SDS011;35050;51.316;5.994;2023-02-15T04:39:06;14.02;;;8.15;;
49223;SDS011;35050;51.316;5.994;2023-02-15T04:41:32;12.90;;;7.97;;
49223;SDS011;35050;51.316;5.994;2023-02-15T04:43:58;13.75;;;8.25;;
49223;SDS011;35050;51.316;5.994;2023-02-15T04:46:25;11.07;;;7.60;;
49223;SDS011;35050;51.316;5.994;2023-02-15T04:48:52;13.13;;;8.52;;
49223;SDS011;35050;51.316;5.994;2023-02-15T04:51:18;13.90;;;8.27;;
49223;SDS011;35050;51.316;5.994;2023-02-15T04:53:44;13.82;;;8.30;;
49223;SDS011;35050;51.316;5.994;2023-02-15T04:56:09;12.55;;;8.10;;
49223;SDS011;35050;51.316;5.994;2023-02-15T04:58:35;14.27;;;8.18;;
49223;SDS011;35050;51.316;5.994;2023-02-15T05:01:02;14.93;;;8.30;;
49223;SDS011;35050;51.316;5.994;2023-02-15T05:03:28;14.65;;;8.68;;
49223;SDS011;35050;51.316;5.994;2023-02-15T05:05:53;13.43;;;8.60;;
49223;SDS011;35050;51.316;5.994;2023-02-15T05:08:19;13.52;;;8.45;;
49223;SDS011;35050;51.316;5.994;2023-02-15T05:10:44;12.10;;;8.43;;
49223;SDS011;35050;51.316;5.994;2023-02-15T05:13:13;15.80;;;8.30;;
49223;SDS011;35050;51.316;5.994;2023-02-15T05:15:38;13.05;;;8.65;;
49223;SDS011;35050;51.316;5.994;2023-02-15T05:18:04;14.50;;;9.77;;
49223;SDS011;35050;51.316;5.994;2023-02-15T05:20:31;14.68;;;8.40;;
49223;SDS011;35050;51.316;5.994;2023-02-15T05:22:57;12.85;;;8.75;;
49223;SDS011;35050;51.316;5.994;2023-02-15T05:25:22;13.98;;;8.95;;
49223;SDS011;35050;51.316;5.994;2023-02-15T05:28:10;15.32;;;8.52;;
49223;SDS011;35050;51.316;5.994;2023-02-15T05:30:48;15.35;;;8.90;;
49223;SDS011;35050;51.316;5.994;2023-02-15T05:33:31;12.60;;;8.52;;
49223;SDS011;35050;51.316;5.994;2023-02-15T05:35:57;12.77;;;8.35;;
49223;SDS011;35050;51.316;5.994;2023-02-15T05:38:23;12.27;;;8.50;;
49223;SDS011;35050;51.316;5.994;2023-02-15T05:40:52;13.95;;;9.38;;
49223;SDS011;35050;51.316;5.994;2023-02-15T05:43:18;14.05;;;8.43;;
49223;SDS011;35050;51.316;5.994;2023-02-15T05:45:48;14.63;;;9.27;;
49223;SDS011;35050;51.316;5.994;2023-02-15T05:48:15;13.57;;;8.20;;
49223;SDS011;35050;51.316;5.994;2023-02-15T05:50:41;14.50;;;8.93;;
49223;SDS011;35050;51.316;5.994;2023-02-15T05:53:07;13.23;;;8.50;;
49223;SDS011;35050;51.316;5.994;2023-02-15T05:55:33;13.07;;;9.20;;
49223;SDS011;35050;51.316;5.994;2023-02-15T05:57:58;14.65;;;9.10;;
49223;SDS011;35050;51.316;5.994;2023-02-15T06:00:24;13.27;;;8.60;;
49223;SDS011;35050;51.316;5.994;2023-02-15T06:02:50;14.25;;;9.00;;
49223;SDS011;35050;51.316;5.994;2023-02-15T06:05:16;13.70;;;9.10;;
49223;SDS011;35050;51.316;5.994;2023-02-15T06:07:44;15.20;;;8.43;;
49223;SDS011;35050;51.316;5.994;2023-02-15T06:10:10;15.00;;;8.55;;
49223;SDS011;35050;51.316;5.994;2023-02-15T06:12:36;13.23;;;8.65;;
49223;SDS011;35050;51.316;5.994;2023-02-15T06:15:02;13.38;;;8.23;;
49223;SDS011;35050;51.316;5.994;2023-02-15T06:17:28;13.77;;;9.00;;
49223;SDS011;35050;51.316;5.994;2023-02-15T06:19:54;14.60;;;9.25;;
49223;SDS011;35050;51.316;5.994;2023-02-15T06:22:20;15.30;;;9.00;;
49223;SDS011;35050;51.316;5.994;2023-02-15T06:24:46;14.05;;;9.02;;
49223;SDS011;35050;51.316;5.994;2023-02-15T06:27:12;15.38;;;9.32;;
49223;SDS011;35050;51.316;5.994;2023-02-15T06:29:37;16.02;;;9.65;;
49223;SDS011;35050;51.316;5.994;2023-02-15T06:32:04;15.15;;;9.77;;
49223;SDS011;35050;51.316;5.994;2023-02-15T06:34:30;13.77;;;8.65;;
49223;SDS011;35050;51.316;5.994;2023-02-15T06:36:56;18.15;;;10.50;;
49223;SDS011;35050;51.316;5.994;2023-02-15T06:39:22;17.38;;;10.93;;
49223;SDS011;35050;51.316;5.994;2023-02-15T06:41:47;15.75;;;10.13;;
49223;SDS011;35050;51.316;5.994;2023-02-15T06:44:13;16.00;;;9.80;;
49223;SDS011;35050;51.316;5.994;2023-02-15T06:46:39;16.10;;;10.55;;
49223;SDS011;35050;51.316;5.994;2023-02-15T06:49:04;15.27;;;9.85;;
49223;SDS011;35050;51.316;5.994;2023-02-15T06:51:30;16.02;;;9.30;;
49223;SDS011;35050;51.316;5.994;2023-02-15T06:53:55;14.43;;;9.30;;
49223;SDS011;35050;51.316;5.994;2023-02-15T06:56:21;15.85;;;9.02;;
49223;SDS011;35050;51.316;5.994;2023-02-15T06:58:47;16.92;;;9.65;;
49223;SDS011;35050;51.316;5.994;2023-02-15T07:01:14;16.10;;;9.43;;
49223;SDS011;35050;51.316;5.994;2023-02-15T07:03:40;16.30;;;10.25;;
49223;SDS011;35050;51.316;5.994;2023-02-15T07:06:06;17.20;;;9.80;;
49223;SDS011;35050;51.316;5.994;2023-02-15T07:08:34;15.90;;;9.85;;
49223;SDS011;35050;51.316;5.994;2023-02-15T07:11:00;18.25;;;10.50;;
49223;SDS011;35050;51.316;5.994;2023-02-15T07:14:01;17.58;;;10.73;;
49223;SDS011;35050;51.316;5.994;2023-02-15T07:16:27;16.35;;;10.45;;
49223;SDS011;35050;51.316;5.994;2023-02-15T07:18:53;16.05;;;10.20;;
49223;SDS011;35050;51.316;5.994;2023-02-15T07:21:18;17.52;;;10.57;;
49223;SDS011;35050;51.316;5.994;2023-02-15T07:23:44;15.40;;;10.10;;
49223;SDS011;35050;51.316;5.994;2023-02-15T07:26:09;14.25;;;9.00;;
49223;SDS011;35050;51.316;5.994;2023-02-15T07:28:35;17.40;;;10.45;;
49223;SDS011;35050;51.316;5.994;2023-02-15T07:31:02;19.25;;;9.68;;
49223;SDS011;35050;51.316;5.994;2023-02-15T07:33:30;15.15;;;9.35;;
49223;SDS011;35050;51.316;5.994;2023-02-15T07:35:57;17.77;;;9.68;;
49223;SDS011;35050;51.316;5.994;2023-02-15T07:38:24;16.10;;;10.38;;
49223;SDS011;35050;51.316;5.994;2023-02-15T07:40:51;17.15;;;10.02;;
49223;SDS011;35050;51.316;5.994;2023-02-15T07:43:17;14.75;;;9.70;;
49223;SDS011;35050;51.316;5.994;2023-02-15T07:45:42;17.55;;;11.02;;
49223;SDS011;35050;51.316;5.994;2023-02-15T07:48:08;16.23;;;11.18;;
49223;SDS011;35050;51.316;5.994;2023-02-15T07:50:34;17.02;;;10.15;;
49223;SDS011;35050;51.316;5.994;2023-02-15T07:53:03;20.15;;;10.85;;
49223;SDS011;35050;51.316;5.994;2023-02-15T07:55:29;17.45;;;10.32;;
49223;SDS011;35050;51.316;5.994;2023-02-15T07:57:55;16.50;;;10.35;;
49223;SDS011;35050;51.316;5.994;2023-02-15T08:00:22;17.13;;;10.52;;
49223;SDS011;35050;51.316;5.994;2023-02-15T08:02:56;15.07;;;10.40;;
49223;SDS011;35050;51.316;5.994;2023-02-15T08:05:40;14.73;;;10.02;;
49223;SDS011;35050;51.316;5.994;2023-02-15T08:08:07;17.85;;;10.57;;
49223;SDS011;35050;51.316;5.994;2023-02-15T08:10:56;19.65;;;12.20;;
49223;SDS011;35050;51.316;5.994;2023-02-15T08:13:42;18.60;;;11.57;;
49223;SDS011;35050;51.316;5.994;2023-02-15T08:18:59;21.05;;;11.82;;
49223;SDS011;35050;51.316;5.994;2023-02-15T08:21:30;16.13;;;11.00;;
49223;SDS011;35050;51.316;5.994;2023-02-15T08:23:57;19.15;;;10.88;;
49223;SDS011;35050;51.316;5.994;2023-02-15T08:26:23;18.42;;;11.48;;
49223;SDS011;35050;51.316;5.994;2023-02-15T08:28:50;20.10;;;13.18;;
49223;SDS011;35050;51.316;5.994;2023-02-15T08:31:16;21.38;;;13.05;;
49223;SDS011;35050;51.316;5.994;2023-02-15T08:33:43;18.98;;;12.18;;
49223;SDS011;35050;51.316;5.994;2023-02-15T08:36:15;19.35;;;12.43;;
49223;SDS011;35050;51.316;5.994;2023-02-15T08:41:22;17.10;;;10.77;;
49223;SDS011;35050;51.316;5.994;2023-02-15T08:43:53;15.98;;;11.15;;
49223;SDS011;35050;51.316;5.994;2023-02-15T08:46:20;23.15;;;15.63;;
49223;SDS011;35050;51.316;5.994;2023-02-15T08:48:48;25.27;;;14.90;;
49223;SDS011;35050;51.316;5.994;2023-02-15T08:51:18;21.30;;;13.25;;
49223;SDS011;35050;51.316;5.994;2023-02-15T08:53:46;19.55;;;12.90;;
49223;SDS011;35050;51.316;5.994;2023-02-15T08:56:17;19.35;;;13.48;;
49223;SDS011;35050;51.316;5.994;2023-02-15T08:58:46;24.77;;;15.38;;
49223;SDS011;35050;51.316;5.994;2023-02-15T09:01:18;24.13;;;14.80;;
49223;SDS011;35050;51.316;5.994;2023-02-15T09:03:46;20.70;;;14.68;;
49223;SDS011;35050;51.316;5.994;2023-02-15T09:06:14;22.05;;;15.00;;
49223;SDS011;35050;51.316;5.994;2023-02-15T09:08:40;24.10;;;15.10;;
49223;SDS011;35050;51.316;5.994;2023-02-15T09:11:10;23.23;;;15.23;;
49223;SDS011;35050;51.316;5.994;2023-02-15T09:13:48;23.95;;;16.05;;
49223;SDS011;35050;51.316;5.994;2023-02-15T09:16:15;24.02;;;15.68;;
49223;SDS011;35050;51.316;5.994;2023-02-15T09:18:43;24.70;;;16.00;;
49223;SDS011;35050;51.316;5.994;2023-02-15T09:21:10;21.25;;;13.70;;
49223;SDS011;35050;51.316;5.994;2023-02-15T09:23:41;22.58;;;15.15;;
49223;SDS011;35050;51.316;5.994;2023-02-15T09:26:10;26.67;;;16.55;;
49223;SDS011;35050;51.316;5.994;2023-02-15T09:28:37;29.33;;;16.52;;
49223;SDS011;35050;51.316;5.994;2023-02-15T09:33:40;25.88;;;15.68;;
49223;SDS011;35050;51.316;5.994;2023-02-15T09:36:20;23.50;;;15.13;;
49223;SDS011;35050;51.316;5.994;2023-02-15T09:38:47;25.90;;;16.92;;
49223;SDS011;35050;51.316;5.994;2023-02-15T09:52:37;25.02;;;15.93;;
49223;SDS011;35050;51.316;5.994;2023-02-15T09:58:03;24.52;;;15.88;;
49223;SDS011;35050;51.316;5.994;2023-02-15T10:00:51;22.38;;;14.77;;
49223;SDS011;35050;51.316;5.994;2023-02-15T10:19:51;21.70;;;14.57;;
49223;SDS011;35050;51.316;5.994;2023-02-15T10:27:55;17.30;;;12.02;;
49223;SDS011;35050;51.316;5.994;2023-02-15T10:30:33;19.73;;;13.98;;
49223;SDS011;35050;51.316;5.994;2023-02-15T10:33:09;22.55;;;14.73;;
49223;SDS011;35050;51.316;5.994;2023-02-15T10:38:40;22.00;;;15.30;;
49223;SDS011;35050;51.316;5.994;2023-02-15T10:41:20;19.23;;;14.07;;
49223;SDS011;35050;51.316;5.994;2023-02-15T10:44:04;18.95;;;13.65;;
49223;SDS011;35050;51.316;5.994;2023-02-15T10:47:03;22.23;;;15.57;;
49223;SDS011;35050;51.316;5.994;2023-02-15T10:52:46;19.05;;;13.40;;
49223;SDS011;35050;51.316;5.994;2023-02-15T11:01:18;16.98;;;11.63;;
49223;SDS011;35050;51.316;5.994;2023-02-15T11:05:02;18.55;;;12.65;;
49223;SDS011;35050;51.316;5.994;2023-02-15T11:07:15;15.77;;;11.95;;
49223;SDS011;35050;51.316;5.994;2023-02-15T11:09:46;17.03;;;12.27;;
49223;SDS011;35050;51.316;5.994;2023-02-15T11:12:16;15.75;;;11.55;;
49223;SDS011;35050;51.316;5.994;2023-02-15T11:14:49;16.05;;;11.98;;
49223;SDS011;35050;51.316;5.994;2023-02-15T11:17:32;14.40;;;10.30;;
49223;SDS011;35050;51.316;5.994;2023-02-15T11:20:17;15.40;;;11.75;;
49223;SDS011;35050;51.316;5.994;2023-02-15T11:22:49;13.48;;;9.70;;
49223;SDS011;35050;51.316;5.994;2023-02-15T11:25:28;13.65;;;9.93;;
49223;SDS011;35050;51.316;5.994;2023-02-15T11:27:59;13.57;;;10.10;;
49223;SDS011;35050;51.316;5.994;2023-02-15T11:30:32;18.75;;;12.95;;
49223;SDS011;35050;51.316;5.994;2023-02-15T11:33:17;18.10;;;12.73;;
49223;SDS011;35050;51.316;5.994;2023-02-15T11:35:49;17.42;;;11.90;;
49223;SDS011;35050;51.316;5.994;2023-02-15T11:38:22;21.25;;;14.32;;
49223;SDS011;35050;51.316;5.994;2023-02-15T11:41:00;21.55;;;14.93;;
49223;SDS011;35050;51.316;5.994;2023-02-15T11:43:32;16.58;;;11.85;;
49223;SDS011;35050;51.316;5.994;2023-02-15T11:45:59;20.25;;;12.70;;
49223;SDS011;35050;51.316;5.994;2023-02-15T11:48:25;24.42;;;15.93;;
49223;SDS011;35050;51.316;5.994;2023-02-15T11:50:54;21.85;;;14.32;;
49223;SDS011;35050;51.316;5.994;2023-02-15T11:53:20;20.60;;;14.63;;
49223;SDS011;35050;51.316;5.994;2023-02-15T11:55:52;22.55;;;14.45;;
49223;SDS011;35050;51.316;5.994;2023-02-15T11:58:25;21.50;;;15.13;;
49223;SDS011;35050;51.316;5.994;2023-02-15T12:00:54;18.00;;;13.35;;
49223;SDS011;35050;51.316;5.994;2023-02-15T12:03:46;20.50;;;13.10;;
49223;SDS011;35050;51.316;5.994;2023-02-15T12:06:14;18.63;;;11.65;;
49223;SDS011;35050;51.316;5.994;2023-02-15T12:08:42;18.63;;;12.43;;
49223;SDS011;35050;51.316;5.994;2023-02-15T12:11:17;19.02;;;13.30;;
49223;SDS011;35050;51.316;5.994;2023-02-15T12:16:25;15.35;;;10.68;;
49223;SDS011;35050;51.316;5.994;2023-02-15T12:18:53;16.20;;;10.98;;
49223;SDS011;35050;51.316;5.994;2023-02-15T12:21:31;14.60;;;10.57;;
49223;SDS011;35050;51.316;5.994;2023-02-15T12:24:10;16.30;;;10.50;;
49223;SDS011;35050;51.316;5.994;2023-02-15T12:26:55;14.60;;;10.55;;
49223;SDS011;35050;51.316;5.994;2023-02-15T12:29:35;13.88;;;9.95;;
49223;SDS011;35050;51.316;5.994;2023-02-15T12:32:08;15.50;;;11.20;;
49223;SDS011;35050;51.316;5.994;2023-02-15T12:34:41;18.65;;;12.80;;
49223;SDS011;35050;51.316;5.994;2023-02-15T12:37:22;19.15;;;11.85;;
49223;SDS011;35050;51.316;5.994;2023-02-15T12:39:57;14.43;;;9.93;;
49223;SDS011;35050;51.316;5.994;2023-02-15T12:42:25;18.77;;;13.30;;
49223;SDS011;35050;51.316;5.994;2023-02-15T12:44:59;19.33;;;12.65;;
49223;SDS011;35050;51.316;5.994;2023-02-15T12:47:26;20.08;;;11.82;;
49223;SDS011;35050;51.316;5.994;2023-02-15T12:50:11;17.50;;;12.10;;
49223;SDS011;35050;51.316;5.994;2023-02-15T12:52:42;17.40;;;11.90;;
49223;SDS011;35050;51.316;5.994;2023-02-15T12:57:49;15.45;;;10.75;;
49223;SDS011;35050;51.316;5.994;2023-02-15T13:00:30;12.55;;;8.93;;
49223;SDS011;35050;51.316;5.994;2023-02-15T13:02:57;14.18;;;10.30;;
49223;SDS011;35050;51.316;5.994;2023-02-15T13:07:58;15.05;;;10.20;;
49223;SDS011;35050;51.316;5.994;2023-02-15T13:10:33;17.25;;;10.48;;
49223;SDS011;35050;51.316;5.994;2023-02-15T13:13:02;15.40;;;9.40;;
49223;SDS011;35050;51.316;5.994;2023-02-15T13:15:44;13.25;;;9.10;;
49223;SDS011;35050;51.316;5.994;2023-02-15T13:18:17;14.75;;;10.02;;
49223;SDS011;35050;51.316;5.994;2023-02-15T13:20:55;14.02;;;9.48;;
49223;SDS011;35050;51.316;5.994;2023-02-15T13:25:55;11.38;;;8.43;;
49223;SDS011;35050;51.316;5.994;2023-02-15T13:28:37;15.82;;;10.30;;
49223;SDS011;35050;51.316;5.994;2023-02-15T13:31:11;16.02;;;11.35;;
49223;SDS011;35050;51.316;5.994;2023-02-15T13:33:38;15.27;;;10.82;;
49223;SDS011;35050;51.316;5.994;2023-02-15T13:38:54;15.50;;;9.70;;
49223;SDS011;35050;51.316;5.994;2023-02-15T13:55:57;11.48;;;8.13;;
49223;SDS011;35050;51.316;5.994;2023-02-15T13:58:38;9.85;;;7.13;;
49223;SDS011;35050;51.316;5.994;2023-02-15T14:01:34;10.98;;;7.50;;
49223;SDS011;35050;51.316;5.994;2023-02-15T14:20:17;10.10;;;7.78;;
49223;SDS011;35050;51.316;5.994;2023-02-15T14:28:27;13.30;;;8.85;;
49223;SDS011;35050;51.316;5.994;2023-02-15T14:31:09;11.85;;;8.05;;
49223;SDS011;35050;51.316;5.994;2023-02-15T14:33:39;14.35;;;9.38;;
49223;SDS011;35050;51.316;5.994;2023-02-15T14:36:17;16.55;;;9.63;;
49223;SDS011;35050;51.316;5.994;2023-02-15T14:38:48;15.73;;;11.18;;
49223;SDS011;35050;51.316;5.994;2023-02-15T14:41:57;15.90;;;9.85;;
49223;SDS011;35050;51.316;5.994;2023-02-15T14:44:37;17.23;;;11.48;;
49223;SDS011;35050;51.316;5.994;2023-02-15T14:47:11;18.83;;;11.88;;
49223;SDS011;35050;51.316;5.994;2023-02-15T14:49:50;15.80;;;10.82;;
49223;SDS011;35050;51.316;5.994;2023-02-15T14:52:16;14.05;;;10.35;;
49223;SDS011;35050;51.316;5.994;2023-02-15T15:04:43;15.45;;;9.80;;
49223;SDS011;35050;51.316;5.994;2023-02-15T15:07:24;15.00;;;9.20;;
49223;SDS011;35050;51.316;5.994;2023-02-15T15:09:59;13.25;;;8.98;;
49223;SDS011;35050;51.316;5.994;2023-02-15T15:12:46;11.27;;;7.25;;
49223;SDS011;35050;51.316;5.994;2023-02-15T15:15:16;12.32;;;8.13;;
49223;SDS011;35050;51.316;5.994;2023-02-15T15:18:07;11.18;;;7.82;;
49223;SDS011;35050;51.316;5.994;2023-02-15T15:36:51;15.40;;;7.63;;
49223;SDS011;35050;51.316;5.994;2023-02-15T15:54:11;12.43;;;7.55;;
49223;SDS011;35050;51.316;5.994;2023-02-15T15:56:44;10.80;;;6.65;;
49223;SDS011;35050;51.316;5.994;2023-02-15T15:59:18;10.75;;;7.40;;
49223;SDS011;35050;51.316;5.994;2023-02-15T16:01:47;13.10;;;7.32;;
49223;SDS011;35050;51.316;5.994;2023-02-15T16:04:22;12.48;;;7.38;;
49223;SDS011;35050;51.316;5.994;2023-02-15T16:06:54;14.68;;;8.98;;
49223;SDS011;35050;51.316;5.994;2023-02-15T16:09:22;16.05;;;10.13;;
49223;SDS011;35050;51.316;5.994;2023-02-15T16:11:50;17.50;;;10.35;;
49223;SDS011;35050;51.316;5.994;2023-02-15T16:16:51;17.27;;;10.63;;
49223;SDS011;35050;51.316;5.994;2023-02-15T16:19:30;15.57;;;9.55;;
49223;SDS011;35050;51.316;5.994;2023-02-15T16:21:59;13.63;;;8.20;;
49223;SDS011;35050;51.316;5.994;2023-02-15T16:27:08;13.85;;;8.45;;
49223;SDS011;35050;51.316;5.994;2023-02-15T16:29:44;12.73;;;8.95;;
49223;SDS011;35050;51.316;5.994;2023-02-15T16:34:50;11.52;;;7.90;;
49223;SDS011;35050;51.316;5.994;2023-02-15T16:37:26;11.65;;;7.88;;
49223;SDS011;35050;51.316;5.994;2023-02-15T16:39:56;12.20;;;7.90;;
49223;SDS011;35050;51.316;5.994;2023-02-15T16:42:22;12.70;;;8.00;;
49223;SDS011;35050;51.316;5.994;2023-02-15T16:45:05;12.65;;;8.15;;
49223;SDS011;35050;51.316;5.994;2023-02-15T16:47:36;11.38;;;7.20;;
49223;SDS011;35050;51.316;5.994;2023-02-15T16:52:42;13.02;;;7.65;;
49223;SDS011;35050;51.316;5.994;2023-02-15T16:55:18;11.65;;;7.35;;
49223;SDS011;35050;51.316;5.994;2023-02-15T16:57:49;11.38;;;7.00;;
49223;SDS011;35050;51.316;5.994;2023-02-15T17:00:18;10.95;;;7.22;;
49223;SDS011;35050;51.316;5.994;2023-02-15T17:02:57;11.57;;;7.50;;
49223;SDS011;35050;51.316;5.994;2023-02-15T17:05:29;11.23;;;7.75;;
49223;SDS011;35050;51.316;5.994;2023-02-15T17:08:12;11.00;;;7.07;;
49223;SDS011;35050;51.316;5.994;2023-02-15T17:13:28;11.70;;;8.05;;
49223;SDS011;35050;51.316;5.994;2023-02-15T17:18:26;12.10;;;8.10;;
49223;SDS011;35050;51.316;5.994;2023-02-15T17:20:59;12.20;;;9.07;;
49223;SDS011;35050;51.316;5.994;2023-02-15T17:23:40;11.40;;;8.02;;
49223;SDS011;35050;51.316;5.994;2023-02-15T17:26:20;13.25;;;8.20;;
49223;SDS011;35050;51.316;5.994;2023-02-15T17:28:51;11.50;;;8.07;;
49223;SDS011;35050;51.316;5.994;2023-02-15T17:33:48;10.55;;;7.38;;
49223;SDS011;35050;51.316;5.994;2023-02-15T17:36:19;11.20;;;7.25;;
49223;SDS011;35050;51.316;5.994;2023-02-15T17:41:22;10.02;;;7.40;;
49223;SDS011;35050;51.316;5.994;2023-02-15T17:43:52;11.48;;;7.38;;
49223;SDS011;35050;51.316;5.994;2023-02-15T17:46:17;10.85;;;7.57;;
49223;SDS011;35050;51.316;5.994;2023-02-15T17:48:47;10.98;;;7.32;;
49223;SDS011;35050;51.316;5.994;2023-02-15T17:51:13;9.85;;;6.82;;
49223;SDS011;35050;51.316;5.994;2023-02-15T17:53:40;10.80;;;6.85;;
49223;SDS011;35050;51.316;5.994;2023-02-15T17:56:30;9.35;;;6.57;;
49223;SDS011;35050;51.316;5.994;2023-02-15T17:58:57;11.27;;;7.35;;
49223;SDS011;35050;51.316;5.994;2023-02-15T18:01:22;9.63;;;6.68;;
49223;SDS011;35050;51.316;5.994;2023-02-15T18:04:10;11.90;;;7.20;;
49223;SDS011;35050;51.316;5.994;2023-02-15T18:06:56;8.93;;;6.32;;
49223;SDS011;35050;51.316;5.994;2023-02-15T18:09:41;13.15;;;6.95;;
49223;SDS011;35050;51.316;5.994;2023-02-15T18:12:29;10.13;;;6.82;;
49223;SDS011;35050;51.316;5.994;2023-02-15T18:14:56;10.32;;;6.53;;